Time;durP1;ratioP1;P1;durP2;ratioP2;P2;SDS_P1;SDS_P2;PMS_P1;PMS_P2;Temp;Humidity;BMP_temperature;BMP_pressure;BME280_temperature;BME280_humidity;BME280_pressure;Samples;Min_cycle;Max_cycle;Signal;HPM_P1;HPM_P2
2021/04/24 00:01:52;;;;;;;5.38;1.63;;;4.60;99.90;;;;;;5046840;28;20041;-77
2021/04/24 00:04:18;;;;;;;6.32;1.85;;;4.70;99.90;;;;;;5046988;28;20033;-77
2021/04/24 00:06:43;;;;;;;7.00;2.05;;;4.70;99.90;;;;;;5046395;28;20039;-77
2021/04/24 00:09:09;;;;;;;5.40;2.15;;;4.70;99.90;;;;;;5062017;28;20132;-77
2021/04/24 00:11:37;;;;;;;7.18;2.13;;;4.60;99.90;;;;;;5046581;28;20042;-77
2021/04/24 00:14:03;;;;;;;5.72;1.58;;;4.60;99.90;;;;;;5061975;28;20025;-77
2021/04/24 00:16:29;;;;;;;7.65;2.85;;;4.60;99.90;;;;;;5045485;28;20036;-77
2021/04/24 00:18:54;;;;;;;5.10;2.30;;;4.50;99.90;;;;;;5046359;28;20029;-77
2021/04/24 00:21:20;;;;;;;7.97;1.65;;;4.50;99.90;;;;;;5045977;28;20041;-77
2021/04/24 00:23:46;;;;;;;4.43;1.77;;;4.50;99.90;;;;;;5061598;28;20035;-77
2021/04/24 00:26:11;;;;;;;5.35;1.58;;;4.50;99.90;;;;;;5045246;28;20033;-77
2021/04/24 00:28:37;;;;;;;5.22;1.83;;;4.40;99.90;;;;;;5045040;28;20533;-76
2021/04/24 00:31:03;;;;;;;4.80;1.52;;;4.40;99.90;;;;;;5045200;28;20029;-77
2021/04/24 00:33:29;;;;;;;6.70;1.92;;;4.40;99.90;;;;;;5044826;28;20029;-77
2021/04/24 00:35:55;;;;;;;4.25;1.88;;;4.30;99.90;;;;;;5046042;28;20041;-77
2021/04/24 00:38:20;;;;;;;5.53;1.52;;;4.30;99.90;;;;;;5046025;28;20030;-77
2021/04/24 00:40:46;;;;;;;5.38;2.10;;;4.30;99.90;;;;;;5044813;28;20053;-76
2021/04/24 00:43:16;;;;;;;5.95;1.63;;;4.20;99.90;;;;;;5045857;28;20037;-77
2021/04/24 00:45:42;;;;;;;4.13;1.27;;;4.20;99.90;;;;;;5046202;28;20036;-77
2021/04/24 00:48:08;;;;;;;4.55;1.73;;;4.20;99.90;;;;;;5061121;28;20069;-77
2021/04/24 00:50:38;;;;;;;6.88;1.92;;;4.20;99.90;;;;;;5061352;28;20043;-76
2021/04/24 00:53:09;;;;;;;5.72;1.85;;;4.20;99.90;;;;;;5061259;28;20432;-77
2021/04/24 00:55:35;;;;;;;7.57;2.45;;;4.20;99.90;;;;;;5044478;28;20029;-77
2021/04/24 00:58:03;;;;;;;5.05;1.85;;;4.10;99.90;;;;;;5061159;28;20040;-76
2021/04/24 01:00:29;;;;;;;5.60;1.58;;;4.10;99.90;;;;;;5044625;28;20026;-76
2021/04/24 01:02:55;;;;;;;4.60;1.90;;;4.00;99.90;;;;;;5045756;28;20064;-77
2021/04/24 01:09:33;;;;;;;6.00;1.85;;;3.90;99.90;;;;;;5000022;28;20053;-76
2021/04/24 01:11:59;;;;;;;7.35;2.00;;;3.90;99.90;;;;;;5006937;28;20058;-77
2021/04/24 01:14:25;;;;;;;4.88;1.92;;;3.80;99.90;;;;;;5007128;28;20038;-76
2021/04/24 01:16:51;;;;;;;5.95;2.67;;;3.80;99.90;;;;;;5007122;28;20053;-77
2021/04/24 01:19:22;;;;;;;6.70;1.67;;;3.70;99.90;;;;;;5006758;28;20088;-77
2021/04/24 01:21:50;;;;;;;5.03;2.10;;;3.80;99.90;;;;;;5023557;28;20054;-76
2021/04/24 01:24:15;;;;;;;6.90;2.20;;;3.60;99.90;;;;;;5007009;28;20038;-77
2021/04/24 01:26:41;;;;;;;6.38;1.92;;;3.70;99.90;;;;;;5006938;28;20068;-77
2021/04/24 01:29:07;;;;;;;8.40;2.45;;;3.60;99.90;;;;;;5006799;28;20041;-77
2021/04/24 01:31:37;;;;;;;7.25;2.20;;;3.50;99.90;;;;;;5023437;28;20046;-77
2021/04/24 01:34:03;;;;;;;;;;;3.50;99.90;;;;;;5034772;28;20033;-77
2021/04/24 01:36:29;;;;;;;5.47;1.65;;;3.60;99.90;;;;;;5047080;28;20003;-77
2021/04/24 01:38:55;;;;;;;4.57;1.60;;;3.50;99.90;;;;;;5047017;28;20524;-77
2021/04/24 01:41:21;;;;;;;5.95;2.20;;;3.60;99.90;;;;;;5013939;28;20107;-77
2021/04/24 01:43:54;;;;;;;7.20;1.95;;;3.60;99.90;;;;;;5014835;28;20045;-77
2021/04/24 01:46:21;;;;;;;4.95;1.77;;;3.50;99.90;;;;;;5029410;28;20139;-77
2021/04/24 01:48:47;;;;;;;7.25;2.20;;;3.40;99.90;;;;;;5044860;28;20049;-77
2021/04/24 01:51:13;;;;;;;6.18;1.77;;;3.40;99.90;;;;;;5028527;28;20033;-77
2021/04/24 01:53:39;;;;;;;7.78;2.47;;;3.50;99.90;;;;;;5029620;28;20026;-77
2021/04/24 01:56:06;;;;;;;6.32;2.28;;;3.40;99.90;;;;;;5029325;28;20021;-77
2021/04/24 01:58:32;;;;;;;5.07;2.38;;;3.40;99.90;;;;;;5029173;28;20116;-77
2021/04/24 02:01:08;;;;;;;8.05;2.75;;;3.40;99.90;;;;;;5029298;28;20038;-77
2021/04/24 02:03:34;;;;;;;6.30;2.75;;;3.50;99.90;;;;;;5044537;28;20066;-77
2021/04/24 02:05:59;;;;;;;5.75;1.40;;;3.40;99.90;;;;;;5044166;28;20049;-77
2021/04/24 02:08:36;;;;;;;7.03;2.33;;;3.40;99.90;;;;;;5044288;28;20038;-77
2021/04/24 02:11:03;;;;;;;6.22;2.13;;;3.30;99.90;;;;;;5027620;28;20089;-77
2021/04/24 02:13:33;;;;;;;6.43;2.05;;;3.30;99.90;;;;;;5044524;28;20109;-77
2021/04/24 02:15:59;;;;;;;7.03;2.58;;;3.30;99.90;;;;;;5044364;28;20037;-77
2021/04/24 02:18:26;;;;;;;7.00;2.47;;;3.30;99.90;;;;;;5044296;28;20037;-77
2021/04/24 02:20:51;;;;;;;10.88;2.58;;;3.30;99.90;;;;;;5044151;28;20033;-77
2021/04/24 02:23:18;;;;;;;7.53;2.78;;;3.30;99.90;;;;;;5044250;28;20467;-77
2021/04/24 02:25:46;;;;;;;6.82;3.08;;;3.30;99.90;;;;;;5027340;28;20064;-77
2021/04/24 02:28:12;;;;;;;8.57;2.25;;;3.30;99.90;;;;;;5027496;28;20030;-77
2021/04/24 02:30:38;;;;;;;6.82;2.08;;;3.30;99.90;;;;;;5043866;28;20394;-77
2021/04/24 02:33:04;;;;;;;6.47;2.22;;;3.20;99.90;;;;;;5044313;28;20037;-77
2021/04/24 02:35:48;;;;;;;8.90;2.72;;;3.20;99.90;;;;;;5047035;28;20537;-76
2021/04/24 02:38:33;;;;;;;7.22;2.28;;;3.20;99.90;;;;;;5063801;28;20030;-76
2021/04/24 02:41:02;;;;;;;8.10;1.65;;;3.10;99.90;;;;;;5030478;28;20033;-76
2021/04/24 02:43:28;;;;;;;7.15;2.20;;;3.20;99.90;;;;;;5079623;28;20037;-77
2021/04/24 02:45:54;;;;;;;6.68;2.42;;;3.10;99.90;;;;;;5010865;28;20106;-76
2021/04/24 02:48:20;;;;;;;9.02;2.05;;;3.00;99.90;;;;;;5059096;28;20030;-77
2021/04/24 02:50:46;;;;;;;5.60;2.25;;;3.10;99.90;;;;;;5046924;28;20465;-77
2021/04/24 02:53:12;;;;;;;9.07;3.65;;;3.00;99.90;;;;;;5046874;28;20072;-77
2021/04/24 02:55:38;;;;;;;8.73;2.80;;;3.10;99.90;;;;;;5046720;28;20033;-77
2021/04/24 02:58:04;;;;;;;10.52;2.75;;;3.20;99.90;;;;;;5034003;28;20034;-77
2021/04/24 03:00:31;;;;;;;7.22;2.33;;;3.10;99.90;;;;;;5026850;28;20026;-76
2021/04/24 03:03:11;;;;;;;7.90;2.05;;;3.10;99.90;;;;;;5060032;28;20045;-76
2021/04/24 03:05:38;;;;;;;5.25;1.77;;;3.10;99.90;;;;;;5042242;28;20094;-77
2021/04/24 03:08:06;;;;;;;7.88;1.90;;;3.10;99.90;;;;;;5047126;28;20060;-76
2021/04/24 03:10:33;;;;;;;5.57;2.13;;;3.10;99.90;;;;;;5063190;28;20030;-77
2021/04/24 03:12:59;;;;;;;6.82;2.20;;;3.00;99.90;;;;;;5047662;28;20037;-76
2021/04/24 03:15:25;;;;;;;7.18;2.55;;;3.00;99.90;;;;;;5029942;28;20029;-76
2021/04/24 03:17:51;;;;;;;5.32;2.45;;;3.10;99.90;;;;;;5029762;28;20034;-77
2021/04/24 03:20:18;;;;;;;7.93;2.55;;;2.90;99.90;;;;;;5013410;28;20037;-77
2021/04/24 03:22:44;;;;;;;6.40;2.58;;;3.00;99.90;;;;;;5029719;28;20045;-77
2021/04/24 03:25:11;;;;;;;7.47;2.30;;;3.00;99.90;;;;;;5029679;28;20029;-76
2021/04/24 03:27:37;;;;;;;9.45;3.13;;;2.90;99.90;;;;;;5062618;28;20033;-77
2021/04/24 03:30:05;;;;;;;8.60;2.50;;;2.90;99.90;;;;;;5013249;28;20035;-77
2021/04/24 03:32:31;;;;;;;5.15;2.25;;;2.90;99.90;;;;;;5029605;28;20052;-76
2021/04/24 03:34:57;;;;;;;13.45;2.88;;;2.80;99.90;;;;;;5026123;28;20038;-76
2021/04/24 03:37:23;;;;;;;7.85;2.58;;;2.90;99.90;;;;;;5025976;28;20029;-76
2021/04/24 03:39:48;;;;;;;8.15;2.38;;;2.80;99.90;;;;;;5026281;28;20034;-77
2021/04/24 03:42:14;;;;;;;8.25;2.50;;;2.70;99.90;;;;;;5028994;28;20113;-77
2021/04/24 03:44:41;;;;;;;8.35;2.80;;;2.70;99.90;;;;;;5029411;28;20025;-77
2021/04/24 03:47:07;;;;;;;7.45;2.58;;;2.60;99.90;;;;;;5046910;28;20037;-76
2021/04/24 03:49:33;;;;;;;9.80;3.35;;;2.70;99.90;;;;;;5046037;28;20427;-76
2021/04/24 03:51:59;;;;;;;9.23;2.83;;;2.80;99.90;;;;;;5047007;28;20049;-76
2021/04/24 03:54:25;;;;;;;8.18;2.50;;;2.70;99.90;;;;;;5047052;28;20089;-76
2021/04/24 03:56:50;;;;;;;7.68;2.50;;;2.70;99.90;;;;;;5061527;28;20044;-76
2021/04/24 03:59:16;;;;;;;8.23;2.58;;;2.70;99.90;;;;;;5062199;28;20056;-76
2021/04/24 04:01:42;;;;;;;7.80;3.22;;;2.70;99.90;;;;;;5046781;28;20048;-76
2021/04/24 04:04:08;;;;;;;7.43;2.45;;;2.50;99.90;;;;;;5045661;28;20718;-76
2021/04/24 04:06:34;;;;;;;7.22;2.45;;;2.50;99.90;;;;;;5058527;22;20053;-77
2021/04/24 04:08:59;;;;;;;9.82;2.75;;;2.50;99.90;;;;;;5049253;28;20124;-76
2021/04/24 04:11:25;;;;;;;7.40;3.00;;;2.50;99.90;;;;;;5049249;28;20044;-76
2021/04/24 04:13:50;;;;;;;8.20;2.90;;;2.50;99.90;;;;;;5049146;28;20108;-77
2021/04/24 04:16:16;;;;;;;7.93;3.35;;;2.50;99.90;;;;;;5032643;28;20037;-76
2021/04/24 04:18:42;;;;;;;9.85;2.75;;;2.50;99.90;;;;;;5032603;28;20028;-76
2021/04/24 04:21:07;;;;;;;8.40;3.17;;;2.50;99.90;;;;;;5032570;28;20045;-77
2021/04/24 04:23:33;;;;;;;10.23;3.03;;;2.60;99.90;;;;;;5067161;28;20116;-77
2021/04/24 04:25:59;;;;;;;9.88;3.20;;;2.50;99.90;;;;;;5032608;28;20063;-76
2021/04/24 04:28:26;;;;;;;10.73;3.15;;;2.60;99.90;;;;;;5032279;28;20029;-76
2021/04/24 04:30:53;;;;;;;7.63;2.65;;;2.60;99.90;;;;;;5049194;28;20040;-76
2021/04/24 04:33:20;;;;;;;11.25;4.10;;;2.60;99.90;;;;;;5051093;28;20029;-77
2021/04/24 04:35:46;;;;;;;9.35;4.05;;;2.60;99.90;;;;;;5051611;28;20028;-76
2021/04/24 04:38:12;;;;;;;13.57;4.25;;;2.80;99.90;;;;;;5085693;28;20044;-77
2021/04/24 04:40:39;;;;;;;12.23;4.38;;;2.80;99.90;;;;;;5051243;28;20029;-77
2021/04/24 04:43:06;;;;;;;11.50;4.20;;;2.80;99.90;;;;;;5075701;28;20503;-76
2021/04/24 04:45:35;;;;;;;12.13;3.90;;;2.90;99.90;;;;;;5031075;28;20045;-77
2021/04/24 04:48:02;;;;;;;7.10;2.67;;;2.90;99.90;;;;;;5030916;28;20056;-77
2021/04/24 04:50:32;;;;;;;10.45;4.28;;;2.90;99.90;;;;;;5047531;28;20041;-76
2021/04/24 04:52:59;;;;;;;11.27;5.00;;;2.90;99.90;;;;;;5030914;28;20452;-76
2021/04/24 04:55:25;;;;;;;10.30;4.30;;;3.00;99.90;;;;;;5065641;28;20033;-77
2021/04/24 04:57:51;;;;;;;12.85;3.95;;;3.00;99.90;;;;;;5065138;28;20029;-77
2021/04/24 05:00:18;;;;;;;9.10;3.78;;;3.00;99.90;;;;;;5030762;28;20097;-76
2021/04/24 05:02:45;;;;;;;13.02;5.03;;;3.10;99.90;;;;;;5065093;28;20037;-76
2021/04/24 05:08:00;;;;;;;11.75;4.50;;;3.20;99.90;;;;;;4988538;28;20105;-77
2021/04/24 05:10:26;;;;;;;7.68;2.67;;;3.20;99.90;;;;;;4967962;28;20567;-77
2021/04/24 05:12:52;;;;;;;9.55;3.25;;;3.20;99.90;;;;;;4983916;28;20294;-77
2021/04/24 05:15:18;;;;;;;10.23;4.28;;;3.30;99.90;;;;;;4983627;28;20057;-77
2021/04/24 05:17:45;;;;;;;9.30;3.45;;;3.30;99.90;;;;;;4967484;28;20030;-77
2021/04/24 05:20:12;;;;;;;10.10;3.45;;;3.30;99.90;;;;;;4983780;28;20121;-77
2021/04/24 05:22:38;;;;;;;10.38;3.70;;;3.40;99.90;;;;;;4983775;28;20058;-77
2021/04/24 05:25:05;;;;;;;12.57;4.43;;;3.40;99.90;;;;;;4983684;28;20070;-77
2021/04/24 05:27:31;;;;;;;12.15;4.25;;;3.50;99.90;;;;;;4983596;28;20073;-77
2021/04/24 05:29:57;;;;;;;10.40;3.42;;;3.60;99.90;;;;;;4967533;28;20122;-77
2021/04/24 05:32:23;;;;;;;15.43;4.88;;;3.70;99.90;;;;;;4967549;28;20054;-77
2021/04/24 05:34:49;;;;;;;12.25;4.00;;;3.80;99.90;;;;;;4981980;28;20026;-77
2021/04/24 05:37:15;;;;;;;9.05;3.67;;;3.80;99.90;;;;;;4986700;28;20470;-77
2021/04/24 05:39:41;;;;;;;11.75;4.75;;;3.90;99.90;;;;;;5003406;28;20085;-77
2021/04/24 05:42:07;;;;;;;12.65;5.22;;;4.00;99.90;;;;;;5001000;28;20038;-77
2021/04/24 05:44:32;;;;;;;12.10;4.50;;;4.00;99.90;;;;;;4978986;28;20229;-77
2021/04/24 05:46:58;;;;;;;12.10;4.40;;;4.00;99.90;;;;;;5024829;28;20034;-77
2021/04/24 05:49:23;;;;;;;11.85;4.90;;;4.00;99.90;;;;;;5007325;28;20026;-77
2021/04/24 05:51:49;;;;;;;13.63;5.25;;;4.10;99.90;;;;;;5025181;28;20037;-76
2021/04/24 05:54:15;;;;;;;13.68;5.97;;;4.20;99.90;;;;;;5024918;28;20053;-77
2021/04/24 05:56:40;;;;;;;9.88;3.95;;;4.30;99.90;;;;;;5025105;28;20022;-77
2021/04/24 05:59:06;;;;;;;13.15;4.60;;;4.40;99.90;;;;;;5024997;28;20409;-77
2021/04/24 06:01:31;;;;;;;8.68;3.50;;;4.40;99.90;;;;;;5024775;28;20030;-77
2021/04/24 06:03:57;;;;;;;10.23;2.80;;;4.60;99.90;;;;;;5007207;28;20544;-77
2021/04/24 06:06:23;;;;;;;8.95;3.05;;;4.70;99.90;;;;;;5007902;28;20098;-77
2021/04/24 06:08:49;;;;;;;7.72;3.38;;;4.80;99.90;;;;;;5044551;28;20041;-77
2021/04/24 06:11:15;;;;;;;8.13;3.03;;;4.90;99.90;;;;;;5026703;28;20056;-77
2021/04/24 06:13:40;;;;;;;10.18;2.85;;;5.00;99.90;;;;;;5044428;28;20359;-77
2021/04/24 06:16:06;;;;;;;15.15;4.47;;;5.10;99.90;;;;;;5044453;28;20064;-77
2021/04/24 06:18:32;;;;;;;9.27;2.35;;;5.30;99.90;;;;;;5037369;28;20029;-77
2021/04/24 06:20:58;;;;;;;10.73;3.17;;;5.50;99.90;;;;;;5050274;28;20063;-77
2021/04/24 06:23:23;;;;;;;7.38;2.75;;;5.60;99.90;;;;;;5033611;28;20040;-77
2021/04/24 06:25:49;;;;;;;6.53;2.58;;;5.70;99.90;;;;;;5050267;28;20033;-77
2021/04/24 06:28:15;;;;;;;9.85;2.58;;;5.80;99.90;;;;;;5049840;28;20037;-78
2021/04/24 06:30:40;;;;;;;6.97;2.60;;;5.80;99.90;;;;;;5067990;28;20036;-78
2021/04/24 06:33:06;;;;;;;7.45;2.33;;;5.90;99.90;;;;;;5047334;28;20029;-78
2021/04/24 06:35:32;;;;;;;6.88;2.53;;;6.10;99.90;;;;;;5069644;28;20074;-78
2021/04/24 06:37:58;;;;;;;7.70;2.45;;;6.20;99.90;;;;;;5087607;28;20344;-78
2021/04/24 06:40:26;;;;;;;6.38;1.95;;;6.30;99.90;;;;;;5053236;28;20028;-78
2021/04/24 06:42:51;;;;;;;7.85;3.42;;;6.40;99.90;;;;;;5061448;28;20048;-78
2021/04/24 06:45:18;;;;;;;7.80;2.97;;;6.50;99.90;;;;;;5033087;28;20064;-78
2021/04/24 06:47:44;;;;;;;10.60;3.40;;;6.70;99.90;;;;;;5049061;28;20044;-78
2021/04/24 06:50:11;;;;;;;6.30;2.38;;;6.90;99.90;;;;;;5067479;28;20077;-78
2021/04/24 06:52:38;;;;;;;7.22;2.58;;;7.10;99.90;;;;;;5033121;28;20022;-78
2021/04/24 06:55:05;;;;;;;6.53;2.42;;;7.20;99.90;;;;;;5067249;28;20465;-78
2021/04/24 06:57:30;;;;;;;10.63;3.28;;;7.40;99.90;;;;;;5030103;28;20022;-78
2021/04/24 06:59:56;;;;;;;10.27;3.00;;;7.40;99.90;;;;;;5032118;28;20039;-78
2021/04/24 07:02:21;;;;;;;8.57;2.83;;;7.80;99.90;;;;;;5035142;28;20432;-77
2021/04/24 07:04:47;;;;;;;8.02;2.30;;;7.80;99.90;;;;;;5048354;28;20054;-78
2021/04/24 07:07:15;;;;;;;10.43;3.40;;;7.90;99.90;;;;;;5048430;28;20183;-78
2021/04/24 07:09:40;;;;;;;11.80;3.22;;;8.10;99.90;;;;;;5029517;28;20444;-78
2021/04/24 07:12:07;;;;;;;8.68;2.15;;;8.30;99.90;;;;;;5048432;28;20028;-77
2021/04/24 07:14:33;;;;;;;10.25;2.33;;;8.50;99.90;;;;;;5032084;28;20082;-78
2021/04/24 07:16:58;;;;;;;6.75;2.53;;;8.50;99.90;;;;;;5048237;28;20116;-78
2021/04/24 07:19:24;;;;;;;8.40;2.80;;;8.40;99.90;;;;;;5039759;28;20025;-78
2021/04/24 07:21:50;;;;;;;10.02;3.20;;;8.50;99.90;;;;;;5031701;28;20041;-78
2021/04/24 07:24:16;;;;;;;10.50;3.05;;;8.70;99.90;;;;;;5031669;28;20025;-78
2021/04/24 07:26:42;;;;;;;11.10;3.65;;;8.70;99.90;;;;;;5030223;28;20100;-78
2021/04/24 07:29:08;;;;;;;8.57;2.75;;;8.70;99.90;;;;;;5066144;28;20037;-77
2021/04/24 07:31:34;;;;;;;6.85;3.45;;;8.90;99.90;;;;;;5030101;28;20025;-78
2021/04/24 07:34:00;;;;;;;8.73;3.40;;;9.40;99.90;;;;;;5047854;28;20155;-78
2021/04/24 07:36:27;;;;;;;7.60;3.20;;;9.30;99.90;;;;;;5048091;28;20092;-78
2021/04/24 07:38:56;;;;;;;4.90;1.63;;;9.50;99.90;;;;;;5048427;28;20024;-78
2021/04/24 07:41:23;;;;;;;6.63;1.65;;;9.60;99.90;;;;;;5048266;28;20063;-78
2021/04/24 07:43:49;;;;;;;6.03;1.50;;;9.90;99.90;;;;;;5030118;28;20605;-78
2021/04/24 07:46:15;;;;;;;7.28;1.58;;;10.00;99.90;;;;;;5027389;28;20056;-78
2021/04/24 07:48:40;;;;;;;4.20;1.30;;;10.00;99.90;;;;;;5063943;28;20021;-78
2021/04/24 07:51:06;;;;;;;4.60;1.52;;;10.10;99.90;;;;;;5031632;28;20500;-79
2021/04/24 07:53:32;;;;;;;5.38;1.35;;;9.70;99.90;;;;;;5066256;28;20025;-78
2021/04/24 07:55:57;;;;;;;3.20;1.40;;;9.90;99.90;;;;;;5066109;28;20060;-79
2021/04/24 07:58:23;;;;;;;3.13;1.00;;;9.90;99.90;;;;;;5048248;28;20025;-78
2021/04/24 08:00:49;;;;;;;2.83;1.02;;;10.00;99.90;;;;;;5044791;28;20036;-78
2021/04/24 08:03:14;;;;;;;3.00;1.17;;;10.20;99.90;;;;;;5047568;28;20032;-78
2021/04/24 08:05:40;;;;;;;6.07;1.13;;;10.20;99.90;;;;;;5047012;28;20056;-78
2021/04/24 08:08:06;;;;;;;3.15;0.95;;;10.20;99.90;;;;;;5047470;28;20056;-78
2021/04/24 08:10:31;;;;;;;4.30;0.60;;;10.30;99.90;;;;;;5030971;28;20033;-78
2021/04/24 08:12:59;;;;;;;6.95;1.75;;;10.60;99.90;;;;;;5047554;28;20029;-78
2021/04/24 08:15:26;;;;;;;5.78;2.13;;;9.90;99.90;;;;;;5047532;28;20044;-79
2021/04/24 08:17:53;;;;;;;3.78;1.10;;;10.40;99.90;;;;;;5047317;28;20024;-80
2021/04/24 08:20:19;;;;;;;4.25;1.40;;;10.80;99.90;;;;;;5047357;28;20489;-79
2021/04/24 08:22:45;;;;;;;3.15;0.85;;;10.70;99.90;;;;;;5030849;28;20036;-79
2021/04/24 08:25:11;;;;;;;6.90;1.20;;;10.90;99.90;;;;;;5044681;28;20084;-78
2021/04/24 08:27:38;;;;;;;3.92;1.02;;;10.70;99.90;;;;;;5030414;28;20040;-79
2021/04/24 08:30:06;;;;;;;2.20;0.70;;;10.80;99.90;;;;;;5047000;28;20032;-79
2021/04/24 08:32:32;;;;;;;2.60;0.70;;;11.10;99.90;;;;;;5047191;28;20028;-79
2021/04/24 08:34:58;;;;;;;3.47;0.93;;;11.30;99.90;;;;;;5047926;28;20108;-79
2021/04/24 08:37:24;;;;;;;4.00;0.90;;;11.40;99.90;;;;;;5064804;28;20037;-78
2021/04/24 08:39:49;;;;;;;1.98;0.70;;;11.70;99.90;;;;;;5030688;28;20111;-79
2021/04/24 08:42:15;;;;;;;6.05;1.67;;;11.80;99.90;;;;;;5030388;28;20072;-80
2021/04/24 08:44:42;;;;;;;4.65;1.40;;;10.40;99.90;;;;;;5047486;28;20029;-79
2021/04/24 08:47:09;;;;;;;4.10;1.23;;;10.20;99.90;;;;;;5046615;28;20031;-78
2021/04/24 08:49:39;;;;;;;2.35;0.80;;;11.00;99.90;;;;;;5030281;28;20029;-78
2021/04/24 08:52:05;;;;;;;2.83;0.93;;;11.40;99.90;;;;;;5062473;28;20025;-78
2021/04/24 08:54:31;;;;;;;3.33;0.90;;;11.00;99.90;;;;;;5045988;28;20071;-79
2021/04/24 08:56:56;;;;;;;2.10;0.60;;;11.20;99.90;;;;;;5042209;28;20048;-78
2021/04/24 08:59:22;;;;;;;5.90;1.98;;;11.40;99.90;;;;;;5064147;28;20025;-78
2021/04/24 09:01:48;;;;;;;2.25;0.90;;;10.70;99.90;;;;;;5043478;28;20034;-78
2021/04/24 09:04:13;;;;;;;3.55;1.30;;;11.10;99.90;;;;;;5028372;28;20033;-78
2021/04/24 09:06:39;;;;;;;3.72;0.70;;;11.30;99.90;;;;;;5029383;28;20049;-78
2021/04/24 09:09:08;;;;;;;3.60;1.40;;;11.20;99.90;;;;;;5030337;28;20036;-79
2021/04/24 09:11:42;;;;;;;5.68;1.55;;;10.90;99.90;;;;;;5044846;28;20029;-78
2021/04/24 09:14:13;;;;;;;2.63;0.75;;;10.60;99.90;;;;;;5028945;28;20033;-79
2021/04/24 09:16:39;;;;;;;7.68;1.52;;;10.80;99.90;;;;;;5062659;28;20037;-78
2021/04/24 09:19:36;;;;;;;4.55;1.33;;;10.70;99.90;;;;;;5047294;28;20041;-79
2021/04/24 09:22:23;;;;;;;3.47;1.25;;;11.40;99.90;;;;;;5029898;28;20045;-78
2021/04/24 09:24:54;;;;;;;3.58;1.10;;;10.60;99.90;;;;;;5046168;28;20045;-78
2021/04/24 09:27:41;;;;;;;2.15;0.70;;;11.20;99.90;;;;;;5046205;28;20418;-78
2021/04/24 09:30:34;;;;;;;3.92;0.60;;;11.80;99.90;;;;;;5046615;28;20036;-79
2021/04/24 09:33:11;;;;;;;4.13;1.02;;;11.50;99.90;;;;;;5027453;28;20096;-78
2021/04/24 09:35:51;;;;;;;2.80;0.73;;;11.00;99.90;;;;;;5026815;28;20037;-79
2021/04/24 09:38:31;;;;;;;1.83;0.60;;;11.70;99.90;;;;;;5036213;28;20033;-79
2021/04/24 09:41:37;;;;;;;2.53;0.57;;;11.80;99.90;;;;;;5046659;28;20072;-79
2021/04/24 09:44:08;;;;;;;2.75;0.70;;;11.80;99.90;;;;;;5042514;28;20045;-79
2021/04/24 09:46:46;;;;;;;2.55;0.68;;;11.80;99.90;;;;;;5030069;28;20048;-78
2021/04/24 09:49:22;;;;;;;2.75;0.93;;;12.30;99.90;;;;;;5046865;28;20463;-78
2021/04/24 09:52:03;;;;;;;1.85;0.50;;;12.10;99.90;;;;;;5029548;28;20382;-79
2021/04/24 09:54:43;;;;;;;1.92;0.63;;;12.40;99.90;;;;;;5031735;28;20029;-78
2021/04/24 09:57:19;;;;;;;3.78;1.13;;;12.00;99.90;;;;;;5033981;28;20037;-79
2021/04/24 10:00:02;;;;;;;3.80;1.15;;;12.00;99.90;;;;;;5034028;28;20067;-79
2021/04/24 10:02:44;;;;;;;2.55;1.02;;;11.70;99.90;;;;;;5052189;28;20128;-79
2021/04/24 10:05:53;;;;;;;5.45;0.90;;;12.30;99.90;;;;;;5033952;28;20029;-79
2021/04/24 10:08:19;;;;;;;6.28;0.98;;;11.90;99.90;;;;;;4928349;29;20119;-78
2021/04/24 10:10:45;;;;;;;3.50;0.60;;;11.90;99.90;;;;;;4913466;29;20044;-79
2021/04/24 10:13:10;;;;;;;2.95;0.80;;;12.20;99.90;;;;;;4928596;29;20075;-78
2021/04/24 10:15:47;;;;;;;4.50;0.63;;;12.10;99.90;;;;;;4913412;29;20044;-78
2021/04/24 10:18:14;;;;;;;2.72;0.60;;;12.40;99.90;;;;;;4913113;29;20051;-79
2021/04/24 10:20:44;;;;;;;2.38;0.70;;;12.70;99.90;;;;;;4913349;29;20051;-79
2021/04/24 10:23:11;;;;;;;2.83;0.70;;;12.30;99.90;;;;;;4912790;29;20040;-79
2021/04/24 10:25:37;;;;;;;3.05;0.70;;;12.60;99.90;;;;;;4928992;29;20048;-78
2021/04/24 10:28:04;;;;;;;2.95;0.60;;;13.50;99.90;;;;;;4929020;29;20099;-78
2021/04/24 10:30:29;;;;;;;4.25;0.70;;;13.20;99.90;;;;;;4913206;29;20047;-78
2021/04/24 10:32:56;;;;;;;2.45;0.80;;;13.60;99.90;;;;;;4913074;29;20041;-78
2021/04/24 10:35:23;;;;;;;3.95;0.75;;;13.40;99.60;;;;;;4931287;29;20077;-79
2021/04/24 10:37:51;;;;;;;3.17;0.85;;;13.50;99.90;;;;;;4931264;29;20039;-78
2021/04/24 10:40:18;;;;;;;2.42;0.98;;;13.20;99.90;;;;;;4932081;29;20039;-79
2021/04/24 10:42:53;;;;;;;3.40;0.88;;;12.90;99.90;;;;;;4941074;29;20040;-79
2021/04/24 10:45:33;;;;;;;3.35;1.25;;;13.20;99.90;;;;;;4970467;28;20063;-79
2021/04/24 10:48:00;;;;;;;4.38;1.30;;;12.60;99.90;;;;;;5013783;28;20049;-79
2021/04/24 10:50:41;;;;;;;3.17;0.90;;;12.70;99.90;;;;;;5013940;28;20119;-79
2021/04/24 10:53:19;;;;;;;2.45;1.15;;;12.60;99.90;;;;;;5029360;28;20124;-80
2021/04/24 10:55:45;;;;;;;4.88;0.98;;;12.80;99.90;;;;;;5013537;28;20179;-79
2021/04/24 10:58:19;;;;;;;4.22;0.80;;;13.40;99.90;;;;;;5029690;28;20061;-80
2021/04/24 11:00:47;;;;;;;2.35;1.10;;;13.40;99.40;;;;;;5029963;28;20113;-80
2021/04/24 11:03:35;;;;;;;4.18;1.38;;;13.40;99.90;;;;;;5041925;28;20045;-79
2021/04/24 11:06:23;;;;;;;4.50;1.15;;;13.70;99.90;;;;;;5031064;28;20029;-79
2021/04/24 11:08:52;;;;;;;4.10;1.48;;;13.10;99.60;;;;;;5050182;28;20105;-80
2021/04/24 11:11:21;;;;;;;2.30;0.90;;;12.90;99.90;;;;;;5034200;28;20086;-80
2021/04/24 11:13:56;;;;;;;5.63;1.80;;;13.70;99.90;;;;;;5050383;28;20059;-81
2021/04/24 11:16:23;;;;;;;4.90;1.20;;;13.40;99.90;;;;;;5042318;28;20119;-81
2021/04/24 11:18:51;;;;;;;3.22;1.10;;;13.00;99.90;;;;;;5054501;28;20041;-81
2021/04/24 11:21:16;;;;;;;3.92;0.88;;;12.60;99.90;;;;;;5035390;28;20365;-80
2021/04/24 11:23:44;;;;;;;4.28;0.90;;;13.10;99.70;;;;;;5049894;28;20347;-81
2021/04/24 11:26:17;;;;;;;4.07;0.85;;;13.10;99.00;;;;;;5071889;28;20021;-81
2021/04/24 11:29:10;;;;;;;2.42;0.60;;;13.80;98.50;;;;;;5048108;28;20088;-79
2021/04/24 11:31:53;;;;;;;2.88;1.00;;;14.00;96.70;;;;;;5048050;28;20040;-80
2021/04/24 11:34:31;;;;;;;2.85;0.80;;;13.80;98.10;;;;;;5071875;28;20033;-80
2021/04/24 11:37:18;;;;;;;4.07;0.82;;;13.40;97.10;;;;;;5073007;28;20088;-80
2021/04/24 11:40:06;;;;;;;4.88;0.93;;;13.20;97.10;;;;;;5047405;28;20060;-81
2021/04/24 11:43:05;;;;;;;2.88;0.85;;;13.30;97.70;;;;;;5044616;28;20491;-80
2021/04/24 11:45:48;;;;;;;2.17;1.00;;;13.60;98.60;;;;;;5042712;28;20044;-80
2021/04/24 11:48:16;;;;;;;4.70;0.70;;;14.30;97.60;;;;;;5045758;28;20036;-78
2021/04/24 11:50:44;;;;;;;4.55;1.60;;;14.20;96.20;;;;;;5065898;28;20075;-80
2021/04/24 11:53:10;;;;;;;3.92;0.63;;;13.50;96.80;;;;;;5048529;28;20037;-79
2021/04/24 11:55:39;;;;;;;4.05;1.38;;;14.10;97.00;;;;;;5051077;28;20049;-79
2021/04/24 11:58:10;;;;;;;2.37;0.97;;;14.40;96.30;;;;;;5048433;28;20039;-80
2021/04/24 12:00:37;;;;;;;4.40;1.20;;;14.80;95.80;;;;;;5047579;28;20576;-80
2021/04/24 12:03:03;;;;;;;2.55;0.80;;;14.70;96.10;;;;;;5051870;28;20056;-82
2021/04/24 12:05:49;;;;;;;2.58;0.90;;;15.10;95.70;;;;;;5047925;28;20036;-79
2021/04/24 12:08:21;;;;;;;3.28;1.20;;;15.00;95.40;;;;;;4958726;28;20559;-79
2021/04/24 12:10:49;;;;;;;5.15;1.77;;;14.50;94.80;;;;;;4965773;28;20059;-78
2021/04/24 12:13:14;;;;;;;2.88;1.05;;;14.10;97.10;;;;;;4949493;28;20050;-78
2021/04/24 12:15:43;;;;;;;3.33;1.20;;;14.80;96.30;;;;;;4953433;28;20038;-78
2021/04/24 12:18:09;;;;;;;7.43;2.00;;;14.30;94.60;;;;;;4959765;28;20049;-78
2021/04/24 12:20:41;;;;;;;3.92;1.60;;;13.30;97.00;;;;;;4966436;28;20055;-79
2021/04/24 12:23:12;;;;;;;4.60;0.80;;;13.40;98.40;;;;;;4959567;28;20046;-79
2021/04/24 12:25:40;;;;;;;3.42;1.52;;;13.80;97.00;;;;;;4961727;28;20039;-78
2021/04/24 12:28:07;;;;;;;4.00;1.40;;;13.20;97.50;;;;;;4974760;28;20046;-78
2021/04/24 12:30:38;;;;;;;3.25;0.90;;;13.50;98.50;;;;;;4980931;28;20041;-78
2021/04/24 12:33:03;;;;;;;2.47;0.80;;;13.70;98.70;;;;;;4965878;28;20040;-79
2021/04/24 12:35:34;;;;;;;5.38;1.45;;;13.70;98.70;;;;;;4963972;28;20031;-79
2021/04/24 12:38:15;;;;;;;4.38;1.20;;;14.20;98.30;;;;;;4961864;28;20031;-78
2021/04/24 12:40:46;;;;;;;7.55;1.80;;;13.50;97.00;;;;;;4962583;28;20095;-78
2021/04/24 12:43:20;;;;;;;4.90;0.80;;;13.40;98.50;;;;;;4951362;29;20035;-79
2021/04/24 12:45:48;;;;;;;6.63;1.77;;;13.80;98.00;;;;;;5022978;28;20121;-78
2021/04/24 12:48:16;;;;;;;3.85;0.93;;;13.40;97.70;;;;;;5019977;28;20033;-79
2021/04/24 12:50:57;;;;;;;5.68;1.48;;;13.70;99.10;;;;;;5010390;28;20067;-78
2021/04/24 12:53:40;;;;;;;6.15;1.77;;;13.70;97.60;;;;;;5025096;28;20044;-78
2021/04/24 12:56:14;;;;;;;5.97;1.52;;;13.30;97.90;;;;;;5030765;28;20040;-78
2021/04/24 12:58:45;;;;;;;4.28;1.05;;;13.20;98.80;;;;;;5048443;28;20065;-77
2021/04/24 13:01:17;;;;;;;3.00;0.73;;;13.80;98.10;;;;;;5029679;28;20059;-78
2021/04/24 13:03:44;;;;;;;2.35;0.80;;;13.80;97.60;;;;;;5036431;28;20052;-78
2021/04/24 13:06:19;;;;;;;6.55;1.30;;;13.90;97.90;;;;;;5034206;28;20029;-78
2021/04/24 13:09:08;;;;;;;8.32;0.93;;;13.70;97.00;;;;;;5042943;28;20049;-78